Time;durP1;ratioP1;P1;durP2;ratioP2;P2;SDS_P1;SDS_P2;PMS_P1;PMS_P2;Temp;Humidity;BMP_temperature;BMP_pressure;BME280_temperature;BME280_humidity;BME280_pressure;Samples;Min_cycle;Max_cycle;Signal;HPM_P1;HPM_P2
2022/11/10 00:00:33;;;;;;;2.83;1.83;;;;;;;;;;4971200;28;20445;-80
2022/11/10 00:03:03;;;;;;;8.17;2.50;;;;;;;;;;4964224;28;20496;-79
2022/11/10 00:05:29;;;;;;;5.13;2.80;;;;;;;;;;4965441;28;20457;-80
2022/11/10 00:07:55;;;;;;;9.13;2.67;;;;;;;;;;4975107;28;20432;-80
2022/11/10 00:10:21;;;;;;;7.17;3.53;;;;;;;;;;4967925;28;20445;-79
2022/11/10 00:12:47;;;;;;;3.53;2.70;;;;;;;;;;4979271;28;20946;-79
2022/11/10 00:18:02;;;;;;;5.63;2.23;;;;;;;;;;4977445;28;20440;-80
2022/11/10 00:20:31;;;;;;;5.47;2.37;;;;;;;;;;4980207;28;21150;-81
2022/11/10 00:22:57;;;;;;;6.20;3.87;;;;;;;;;;4981031;28;20460;-80
2022/11/10 00:25:24;;;;;;;5.20;2.00;;;;;;;;;;4977158;28;20445;-79
2022/11/10 00:27:50;;;;;;;3.97;2.60;;;;;;;;;;4980742;28;20424;-79
2022/11/10 00:30:16;;;;;;;6.63;2.43;;;;;;;;;;4986505;28;20440;-80
2022/11/10 00:32:42;;;;;;;4.23;2.90;;;;;;;;;;4974137;28;20666;-80
2022/11/10 00:35:11;;;;;;;5.93;2.40;;;;;;;;;;4972486;28;20452;-80
2022/11/10 00:37:37;;;;;;;4.63;2.37;;;;;;;;;;4976192;28;20516;-79
2022/11/10 00:40:03;;;;;;;3.70;2.27;;;;;;;;;;4975222;28;20433;-80
2022/11/10 00:42:29;;;;;;;5.30;2.50;;;;;;;;;;4969168;28;20710;-80
2022/11/10 00:44:55;;;;;;;2.70;2.03;;;;;;;;;;4968059;28;20518;-80
2022/11/10 00:47:21;;;;;;;8.40;2.57;;;;;;;;;;4966812;28;20436;-81
2022/11/10 00:49:47;;;;;;;8.83;2.93;;;;;;;;;;4974327;28;20481;-80
2022/11/10 00:52:13;;;;;;;2.33;2.23;;;;;;;;;;4978844;28;20441;-79
2022/11/10 00:54:39;;;;;;;3.87;2.07;;;;;;;;;;4953550;28;20993;-80
2022/11/10 00:57:05;;;;;;;8.13;3.00;;;;;;;;;;4962268;28;20480;-80
2022/11/10 00:59:31;;;;;;;6.27;3.00;;;;;;;;;;4982274;28;20503;-79
2022/11/10 01:01:57;;;;;;;10.03;2.63;;;;;;;;;;4981125;28;20479;-80
2022/11/10 01:04:23;;;;;;;9.73;3.70;;;;;;;;;;4971194;28;20440;-79
2022/11/10 01:06:51;;;;;;;3.37;2.60;;;;;;;;;;4970875;28;20480;-79
2022/11/10 01:09:17;;;;;;;7.93;2.40;;;;;;;;;;4969787;28;20449;-80
2022/11/10 01:11:43;;;;;;;2.60;2.40;;;;;;;;;;4980158;28;20444;-79
2022/11/10 01:14:09;;;;;;;4.93;2.23;;;;;;;;;;4976615;28;20436;-79
2022/11/10 01:16:35;;;;;;;9.60;2.30;;;;;;;;;;4979102;28;20435;-80
2022/11/10 01:19:02;;;;;;;4.37;2.80;;;;;;;;;;4976048;28;20523;-80
2022/11/10 01:21:29;;;;;;;5.33;2.50;;;;;;;;;;4980064;28;20646;-80
2022/11/10 01:23:55;;;;;;;4.43;2.83;;;;;;;;;;4974274;28;20499;-80
2022/11/10 01:26:21;;;;;;;3.03;2.80;;;;;;;;;;4970618;28;20465;-79
2022/11/10 01:28:48;;;;;;;3.57;2.43;;;;;;;;;;4974142;28;20480;-80
2022/11/10 01:31:15;;;;;;;3.53;2.73;;;;;;;;;;4981057;28;20496;-80
2022/11/10 01:33:41;;;;;;;5.87;2.40;;;;;;;;;;4952941;28;20445;-80
2022/11/10 01:36:08;;;;;;;3.03;2.33;;;;;;;;;;4987390;28;20849;-80
2022/11/10 01:38:35;;;;;;;6.77;2.33;;;;;;;;;;4977083;28;20445;-80
2022/11/10 01:41:02;;;;;;;10.40;3.10;;;;;;;;;;4977589;28;20459;-80
2022/11/10 01:43:29;;;;;;;2.43;2.23;;;;;;;;;;4971337;28;20885;-81
2022/11/10 01:45:59;;;;;;;10.67;3.67;;;;;;;;;;4970808;28;20440;-81
2022/11/10 01:48:34;;;;;;;4.20;2.67;;;;;;;;;;4983588;28;20437;-80
2022/11/10 01:51:03;;;;;;;7.80;2.37;;;;;;;;;;4984559;28;20443;-81
2022/11/10 01:53:30;;;;;;;9.27;3.20;;;;;;;;;;4972225;28;20448;-78
2022/11/10 01:55:56;;;;;;;5.70;3.30;;;;;;;;;;4977333;28;20556;-79
2022/11/10 01:58:26;;;;;;;6.60;3.00;;;;;;;;;;4973247;28;20469;-80
2022/11/10 02:00:52;;;;;;;4.97;2.40;;;;;;;;;;4983711;28;21044;-79
2022/11/10 02:03:38;;;;;;;6.13;1.93;;;;;;;;;;4964522;28;20464;-80
2022/11/10 02:06:05;;;;;;;4.73;2.60;;;;;;;;;;4960734;28;20482;-81
2022/11/10 02:08:31;;;;;;;6.67;2.27;;;;;;;;;;4972035;28;20503;-81
2022/11/10 02:10:57;;;;;;;3.27;2.17;;;;;;;;;;4976922;28;20470;-81
2022/11/10 02:13:23;;;;;;;6.13;2.67;;;;;;;;;;4973767;28;20497;-81
2022/11/10 02:15:49;;;;;;;6.10;2.73;;;;;;;;;;4974838;28;20471;-81
2022/11/10 02:18:15;;;;;;;3.23;2.70;;;;;;;;;;4981800;28;20433;-81
2022/11/10 02:20:45;;;;;;;6.17;1.87;;;;;;;;;;4979314;28;20539;-81
2022/11/10 02:23:13;;;;;;;2.30;2.20;;;;;;;;;;4974817;28;20849;-80
2022/11/10 02:25:39;;;;;;;2.40;2.30;;;;;;;;;;4979318;28;20453;-80
2022/11/10 02:28:05;;;;;;;4.67;1.80;;;;;;;;;;4978063;28;20425;-81
2022/11/10 02:30:31;;;;;;;3.50;1.97;;;;;;;;;;4975687;28;20973;-81
2022/11/10 02:32:57;;;;;;;7.30;2.37;;;;;;;;;;4969142;28;20480;-81
2022/11/10 02:35:23;;;;;;;6.67;2.00;;;;;;;;;;4977717;28;20986;-80
2022/11/10 02:37:49;;;;;;;8.07;2.33;;;;;;;;;;4968179;28;20433;-78
2022/11/10 02:40:15;;;;;;;7.03;2.07;;;;;;;;;;4975225;28;20447;-79
2022/11/10 02:42:41;;;;;;;4.27;2.33;;;;;;;;;;4977527;28;20468;-79
2022/11/10 02:45:07;;;;;;;4.10;2.37;;;;;;;;;;4971473;28;20455;-79
2022/11/10 02:47:33;;;;;;;3.43;1.73;;;;;;;;;;4981548;28;20437;-78
2022/11/10 02:50:00;;;;;;;7.40;2.23;;;;;;;;;;4955958;28;20534;-79
2022/11/10 02:52:26;;;;;;;9.93;2.70;;;;;;;;;;4966785;28;20440;-79
2022/11/10 02:54:52;;;;;;;12.03;3.03;;;;;;;;;;4979904;28;20432;-80
2022/11/10 02:57:18;;;;;;;4.30;2.43;;;;;;;;;;4950594;28;20496;-80
2022/11/10 02:59:44;;;;;;;5.30;1.87;;;;;;;;;;4954492;28;20452;-80
2022/11/10 03:02:10;;;;;;;4.30;2.87;;;;;;;;;;4972758;28;20488;-81
2022/11/10 03:04:36;;;;;;;5.17;2.43;;;;;;;;;;4972070;28;20494;-81
2022/11/10 03:07:02;;;;;;;5.30;2.60;;;;;;;;;;4983558;28;20465;-79
2022/11/10 03:09:28;;;;;;;4.67;2.33;;;;;;;;;;4981596;28;20724;-80
2022/11/10 03:11:54;;;;;;;7.53;1.93;;;;;;;;;;4978793;28;20485;-79
2022/11/10 03:14:20;;;;;;;2.90;2.00;;;;;;;;;;4968933;28;20440;-79
2022/11/10 03:16:46;;;;;;;2.90;2.30;;;;;;;;;;4972770;28;20429;-80
2022/11/10 03:19:12;;;;;;;5.33;2.60;;;;;;;;;;4971740;28;20437;-79
2022/11/10 03:21:39;;;;;;;4.57;2.70;;;;;;;;;;4975407;28;20417;-79
2022/11/10 03:24:05;;;;;;;12.20;2.30;;;;;;;;;;4944374;28;20498;-79
2022/11/10 03:26:31;;;;;;;4.93;2.40;;;;;;;;;;4982013;28;20471;-80
2022/11/10 03:28:57;;;;;;;6.07;2.37;;;;;;;;;;4981613;28;21188;-80
2022/11/10 03:31:23;;;;;;;5.00;2.47;;;;;;;;;;4985033;28;20774;-81
2022/11/10 03:33:49;;;;;;;5.90;2.70;;;;;;;;;;4973187;28;20445;-79
2022/11/10 03:36:15;;;;;;;9.83;2.17;;;;;;;;;;4979268;28;20432;-79
2022/11/10 03:38:41;;;;;;;2.47;2.03;;;;;;;;;;4956476;28;20470;-79
2022/11/10 03:41:07;;;;;;;4.17;2.10;;;;;;;;;;4976656;28;20888;-79
2022/11/10 03:43:33;;;;;;;2.60;2.00;;;;;;;;;;4978579;28;20467;-80
2022/11/10 03:45:59;;;;;;;4.80;2.30;;;;;;;;;;4965882;28;20445;-79
2022/11/10 03:48:25;;;;;;;14.90;3.00;;;;;;;;;;4974581;28;20444;-82
2022/11/10 03:50:51;;;;;;;10.07;2.50;;;;;;;;;;4975932;28;21154;-81
2022/11/10 03:53:17;;;;;;;15.10;2.80;;;;;;;;;;4979487;28;21115;-81
2022/11/10 03:55:43;;;;;;;8.00;2.20;;;;;;;;;;4980535;28;20436;-80
2022/11/10 03:58:09;;;;;;;6.13;2.00;;;;;;;;;;4979384;28;20519;-81
2022/11/10 04:00:35;;;;;;;4.23;2.30;;;;;;;;;;4977449;28;20853;-81
2022/11/10 04:03:01;;;;;;;6.53;2.30;;;;;;;;;;4977526;28;20484;-78
2022/11/10 04:10:58;;;;;;;7.10;2.63;;;;;;;;;;4974844;28;20499;-79
2022/11/10 04:16:09;;;;;;;10.80;2.30;;;;;;;;;;4970769;28;20463;-79
2022/11/10 04:18:35;;;;;;;7.47;2.87;;;;;;;;;;4980662;28;20881;-79
2022/11/10 04:21:02;;;;;;;3.40;2.30;;;;;;;;;;4974589;28;20954;-79
2022/11/10 04:23:30;;;;;;;4.40;1.90;;;;;;;;;;4982201;28;20479;-79
2022/11/10 04:28:47;;;;;;;4.17;1.90;;;;;;;;;;4978248;28;20880;-79
2022/11/10 04:31:13;;;;;;;10.53;2.47;;;;;;;;;;4971051;28;20432;-80
2022/11/10 04:33:40;;;;;;;8.50;3.17;;;;;;;;;;4977914;28;20494;-79
2022/11/10 04:36:07;;;;;;;7.00;2.30;;;;;;;;;;4980696;28;20428;-79
2022/11/10 04:38:33;;;;;;;10.47;2.83;;;;;;;;;;4980699;28;20440;-79
2022/11/10 04:40:59;;;;;;;10.03;2.70;;;;;;;;;;4984123;28;20452;-80
2022/11/10 04:43:25;;;;;;;13.60;2.87;;;;;;;;;;4987494;28;20491;-80
2022/11/10 04:45:51;;;;;;;6.10;2.43;;;;;;;;;;4983566;28;20491;-79
2022/11/10 04:48:18;;;;;;;9.47;2.40;;;;;;;;;;4980114;28;20441;-80
2022/11/10 04:50:44;;;;;;;9.33;2.30;;;;;;;;;;4980052;28;20428;-80
2022/11/10 04:53:10;;;;;;;5.57;4.00;;;;;;;;;;4272716;28;10000614;-79
2022/11/10 04:55:40;;;;;;;3.20;2.50;;;;;;;;;;4977886;28;20228;-79
2022/11/10 04:58:06;;;;;;;7.10;2.73;;;;;;;;;;4968566;28;21013;-80
2022/11/10 05:00:32;;;;;;;5.00;2.53;;;;;;;;;;4976610;28;20428;-79
2022/11/10 05:03:02;;;;;;;8.83;2.57;;;;;;;;;;4970733;28;20475;-79
2022/11/10 05:05:28;;;;;;;3.70;2.90;;;;;;;;;;4977293;28;20542;-78
2022/11/10 05:07:54;;;;;;;2.63;1.77;;;;;;;;;;4967989;28;20457;-79
2022/11/10 05:10:20;;;;;;;7.97;2.13;;;;;;;;;;4967272;28;20460;-79
2022/11/10 05:12:46;;;;;;;3.83;2.53;;;;;;;;;;4977469;28;20440;-80
2022/11/10 05:15:12;;;;;;;10.20;2.30;;;;;;;;;;4974585;28;20428;-79
2022/11/10 05:17:38;;;;;;;5.87;4.40;;;;;;;;;;4955302;28;20450;-78
2022/11/10 05:20:05;;;;;;;4.63;2.27;;;;;;;;;;4955955;28;20432;-78
2022/11/10 05:22:31;;;;;;;2.70;1.80;;;;;;;;;;4979259;28;20471;-78
2022/11/10 05:24:57;;;;;;;9.73;2.80;;;;;;;;;;4950323;28;20441;-78
2022/11/10 05:27:23;;;;;;;11.33;2.63;;;;;;;;;;4973085;28;20475;-79
2022/11/10 05:29:49;;;;;;;7.87;1.70;;;;;;;;;;4954520;28;20967;-79
2022/11/10 05:32:15;;;;;;;7.00;2.60;;;;;;;;;;4975158;28;20460;-79
2022/11/10 05:34:41;;;;;;;6.93;3.23;;;;;;;;;;4975817;28;20437;-79
2022/11/10 05:37:07;;;;;;;9.70;2.40;;;;;;;;;;4982949;28;21155;-80
2022/11/10 05:39:33;;;;;;;7.30;2.63;;;;;;;;;;4973991;28;20431;-78
2022/11/10 05:42:00;;;;;;;3.27;2.40;;;;;;;;;;4975720;28;20468;-80
2022/11/10 05:44:26;;;;;;;4.80;2.20;;;;;;;;;;4971365;28;20431;-79
2022/11/10 05:46:52;;;;;;;9.93;2.53;;;;;;;;;;4967901;28;20429;-80
2022/11/10 05:49:18;;;;;;;7.10;2.80;;;;;;;;;;4971919;28;20931;-79
2022/11/10 05:51:44;;;;;;;14.47;3.23;;;;;;;;;;4968044;28;20449;-79
2022/11/10 05:54:10;;;;;;;3.93;1.77;;;;;;;;;;4977356;28;20503;-80
2022/11/10 05:56:36;;;;;;;7.10;2.40;;;;;;;;;;4979899;28;20800;-79
2022/11/10 05:59:02;;;;;;;5.73;2.20;;;;;;;;;;4969144;28;20417;-79
2022/11/10 06:01:28;;;;;;;5.53;3.73;;;;;;;;;;4980767;28;20573;-79
2022/11/10 06:03:54;;;;;;;4.10;2.13;;;;;;;;;;4982133;28;20522;-80
2022/11/10 06:06:21;;;;;;;15.67;2.40;;;;;;;;;;4977177;28;20463;-79
2022/11/10 06:08:47;;;;;;;11.10;2.93;;;;;;;;;;4975961;28;20440;-79
2022/11/10 06:11:13;;;;;;;11.30;2.50;;;;;;;;;;4971767;28;20447;-80
2022/11/10 06:13:40;;;;;;;4.27;1.60;;;;;;;;;;4973878;28;20436;-78
2022/11/10 06:16:06;;;;;;;11.50;2.67;;;;;;;;;;4976183;28;20437;-79
2022/11/10 06:18:32;;;;;;;7.03;2.60;;;;;;;;;;4973919;28;21073;-79
2022/11/10 06:20:58;;;;;;;9.07;3.23;;;;;;;;;;4948740;28;20822;-79
2022/11/10 06:23:24;;;;;;;6.50;2.40;;;;;;;;;;4970587;28;20488;-79
2022/11/10 06:25:50;;;;;;;10.30;2.90;;;;;;;;;;4977771;28;20437;-79
2022/11/10 06:28:16;;;;;;;13.87;3.63;;;;;;;;;;4961848;28;20429;-78
2022/11/10 06:30:42;;;;;;;24.20;3.20;;;;;;;;;;4976407;28;20424;-78
2022/11/10 06:33:08;;;;;;;10.03;2.83;;;;;;;;;;4969778;28;20435;-79
2022/11/10 06:35:34;;;;;;;4.83;3.10;;;;;;;;;;4986249;28;20421;-79
2022/11/10 06:38:02;;;;;;;3.73;1.63;;;;;;;;;;4972625;28;20449;-80
2022/11/10 06:40:29;;;;;;;7.13;3.53;;;;;;;;;;4959514;28;20978;-79
2022/11/10 06:42:55;;;;;;;13.53;3.00;;;;;;;;;;4955957;28;20568;-78
2022/11/10 06:45:22;;;;;;;10.80;3.13;;;;;;;;;;4974633;28;20437;-79
2022/11/10 06:47:48;;;;;;;7.10;2.97;;;;;;;;;;4963182;28;20544;-77
2022/11/10 06:50:14;;;;;;;8.47;2.57;;;;;;;;;;4975486;28;20440;-77
2022/11/10 06:52:40;;;;;;;10.83;3.37;;;;;;;;;;4963974;28;20440;-77
2022/11/10 06:55:06;;;;;;;8.47;2.30;;;;;;;;;;4976527;28;20429;-77
2022/11/10 06:57:39;;;;;;;11.00;2.60;;;;;;;;;;4979832;28;20962;-76
2022/11/10 07:00:05;;;;;;;8.37;2.90;;;;;;;;;;4978023;28;20623;-77
2022/11/10 07:02:31;;;;;;;10.50;2.50;;;;;;;;;;4976219;28;20564;-77
2022/11/10 07:04:57;;;;;;;9.97;4.30;;;;;;;;;;4976745;28;20452;-77
2022/11/10 07:07:23;;;;;;;7.87;2.57;;;;;;;;;;4975449;28;20445;-76
2022/11/10 07:09:49;;;;;;;3.23;2.77;;;;;;;;;;4993443;28;20463;-76
2022/11/10 07:12:16;;;;;;;6.20;2.47;;;;;;;;;;4630492;28;9999657;-76
2022/11/10 07:14:41;;;;;;;6.10;2.50;;;;;;;;;;4967521;28;20190;-76
2022/11/10 07:17:08;;;;;;;3.40;2.80;;;;;;;;;;4966234;28;20437;-77
2022/11/10 07:19:34;;;;;;;5.63;2.73;;;;;;;;;;4964358;28;20943;-77
2022/11/10 07:22:00;;;;;;;8.13;2.67;;;;;;;;;;4964064;28;20561;-77
2022/11/10 07:24:29;;;;;;;5.93;3.27;;;;;;;;;;4965507;28;20429;-78
2022/11/10 07:26:55;;;;;;;5.50;2.30;;;;;;;;;;4964278;28;20650;-77
2022/11/10 07:29:21;;;;;;;4.30;2.37;;;;;;;;;;4962525;28;20456;-79
2022/11/10 07:31:47;;;;;;;2.97;2.17;;;;;;;;;;4966739;28;20424;-77
2022/11/10 07:34:13;;;;;;;7.00;2.10;;;;;;;;;;4976991;28;20523;-77
2022/11/10 07:36:39;;;;;;;7.77;2.20;;;;;;;;;;4966306;28;20943;-77
2022/11/10 07:39:05;;;;;;;4.00;2.47;;;;;;;;;;4975497;28;20935;-77
2022/11/10 07:41:32;;;;;;;9.60;3.30;;;;;;;;;;4951460;28;20523;-76
2022/11/10 07:43:58;;;;;;;3.50;3.33;;;;;;;;;;4982343;28;20571;-80
2022/11/10 07:46:24;;;;;;;8.60;3.83;;;;;;;;;;4958360;28;20445;-78
2022/11/10 07:48:50;;;;;;;14.67;3.10;;;;;;;;;;4968713;28;20916;-77
2022/11/10 07:51:16;;;;;;;7.30;2.93;;;;;;;;;;4964955;28;20484;-78
2022/11/10 07:53:45;;;;;;;3.93;2.40;;;;;;;;;;4965835;28;20433;-80
2022/11/10 07:56:11;;;;;;;9.50;3.00;;;;;;;;;;4965523;28;20572;-81
2022/11/10 07:58:37;;;;;;;14.93;3.03;;;;;;;;;;4976106;28;20874;-79
2022/11/10 08:01:03;;;;;;;17.73;3.83;;;;;;;;;;4981986;28;20547;-80
2022/11/10 08:03:30;;;;;;;7.00;3.00;;;;;;;;;;4984486;28;20838;-79
2022/11/10 08:05:56;;;;;;;5.23;2.83;;;;;;;;;;4957818;28;20476;-79
2022/11/10 08:08:22;;;;;;;9.57;2.57;;;;;;;;;;4959037;28;21056;-80
2022/11/10 08:10:48;;;;;;;11.23;3.63;;;;;;;;;;4975778;28;20848;-79
2022/11/10 08:13:14;;;;;;;4.87;2.60;;;;;;;;;;4972696;28;20478;-80
2022/11/10 08:15:40;;;;;;;3.80;2.80;;;;;;;;;;4978409;28;20429;-78
2022/11/10 08:18:08;;;;;;;6.70;2.20;;;;;;;;;;4983535;28;20437;-81
2022/11/10 08:20:34;;;;;;;5.90;2.53;;;;;;;;;;4979501;28;20503;-81
2022/11/10 08:23:02;;;;;;;10.13;2.70;;;;;;;;;;4975763;28;20526;-80
2022/11/10 08:25:28;;;;;;;5.43;2.43;;;;;;;;;;4974667;28;20445;-81
2022/11/10 08:27:58;;;;;;;4.63;3.47;;;;;;;;;;4971520;28;20607;-80
2022/11/10 08:30:24;;;;;;;2.83;2.07;;;;;;;;;;4969373;28;20914;-79
2022/11/10 08:32:52;;;;;;;8.03;2.80;;;;;;;;;;4966310;28;20501;-80
2022/11/10 08:35:18;;;;;;;10.90;3.07;;;;;;;;;;4951554;28;20504;-78
2022/11/10 08:37:44;;;;;;;6.17;2.47;;;;;;;;;;4968669;28;20449;-79
2022/11/10 08:40:11;;;;;;;6.63;2.10;;;;;;;;;;4965374;28;20453;-79
2022/11/10 08:42:37;;;;;;;7.53;2.80;;;;;;;;;;4964115;28;21005;-79
2022/11/10 08:45:03;;;;;;;3.93;2.50;;;;;;;;;;4960847;28;20430;-80
2022/11/10 08:47:29;;;;;;;8.30;3.10;;;;;;;;;;4959877;28;20446;-81
2022/11/10 08:49:55;;;;;;;4.93;2.90;;;;;;;;;;4969595;28;20891;-79
2022/11/10 08:52:21;;;;;;;6.07;3.43;;;;;;;;;;4961953;28;20441;-79
2022/11/10 08:54:47;;;;;;;3.43;3.10;;;;;;;;;;4969235;28;20464;-79
2022/11/10 08:57:13;;;;;;;4.20;2.70;;;;;;;;;;4972989;28;20452;-79
2022/11/10 08:59:39;;;;;;;3.40;3.00;;;;;;;;;;4959834;28;20470;-79
2022/11/10 09:02:05;;;;;;;4.63;2.43;;;;;;;;;;4974017;28;20459;-78
2022/11/10 09:04:31;;;;;;;3.93;2.30;;;;;;;;;;4948790;28;20476;-79
2022/11/10 09:06:57;;;;;;;5.87;2.90;;;;;;;;;;4975626;28;20556;-79
2022/11/10 09:09:25;;;;;;;6.90;2.30;;;;;;;;;;4974140;28;20444;-80
2022/11/10 09:11:51;;;;;;;3.30;2.53;;;;;;;;;;4969330;28;20453;-80
2022/11/10 09:14:17;;;;;;;4.13;2.37;;;;;;;;;;4963863;28;21052;-80
2022/11/10 09:16:43;;;;;;;5.80;2.30;;;;;;;;;;4968335;28;20780;-79
2022/11/10 09:19:09;;;;;;;6.73;2.90;;;;;;;;;;4963403;28;20438;-79
2022/11/10 09:21:36;;;;;;;4.80;2.80;;;;;;;;;;4972569;28;20890;-79
2022/11/10 09:24:02;;;;;;;4.30;2.40;;;;;;;;;;4965790;28;20473;-81
2022/11/10 09:26:28;;;;;;;8.53;2.43;;;;;;;;;;4943032;28;20485;-79
2022/11/10 09:28:54;;;;;;;4.37;3.03;;;;;;;;;;4966458;28;20966;-79
2022/11/10 09:31:20;;;;;;;4.70;2.30;;;;;;;;;;4957148;28;21009;-79
2022/11/10 09:33:46;;;;;;;4.87;2.73;;;;;;;;;;4963931;28;20441;-77
2022/11/10 09:36:12;;;;;;;8.27;3.23;;;;;;;;;;4945799;28;20994;-76
2022/11/10 09:38:39;;;;;;;3.70;2.60;;;;;;;;;;4967065;28;20433;-77
2022/11/10 09:41:10;;;;;;;2.57;2.10;;;;;;;;;;4964778;28;20452;-77
2022/11/10 09:43:56;;;;;;;6.20;2.90;;;;;;;;;;4967154;28;20468;-78
2022/11/10 09:46:42;;;;;;;5.63;2.70;;;;;;;;;;4962213;28;20492;-76
2022/11/10 09:49:13;;;;;;;5.10;2.70;;;;;;;;;;4978148;28;20436;-77
2022/11/10 09:51:42;;;;;;;6.60;3.10;;;;;;;;;;4975259;28;20441;-78
2022/11/10 09:54:17;;;;;;;5.80;2.63;;;;;;;;;;4966845;28;20432;-77
2022/11/10 09:56:43;;;;;;;5.27;2.90;;;;;;;;;;4973181;28;20430;-77
2022/11/10 09:59:18;;;;;;;2.53;2.07;;;;;;;;;;4959361;28;20451;-76
2022/11/10 10:01:48;;;;;;;8.50;2.63;;;;;;;;;;4974604;28;20494;-77
2022/11/10 10:04:29;;;;;;;5.53;2.63;;;;;;;;;;4959340;28;20509;-75
2022/11/10 10:07:06;;;;;;;2.73;2.17;;;;;;;;;;4941619;28;20861;-77
2022/11/10 10:09:51;;;;;;;4.87;2.57;;;;;;;;;;4950134;28;20442;-75
2022/11/10 10:12:23;;;;;;;7.27;3.47;;;;;;;;;;4940797;28;20793;-76
2022/11/10 10:15:08;;;;;;;6.00;3.30;;;;;;;;;;4957616;28;20472;-77
2022/11/10 10:17:50;;;;;;;5.50;2.93;;;;;;;;;;4939949;28;20948;-76
2022/11/10 10:20:26;;;;;;;6.27;2.83;;;;;;;;;;4970413;28;20451;-77
2022/11/10 10:23:13;;;;;;;5.27;2.20;;;;;;;;;;4963688;28;20912;-78
2022/11/10 10:25:40;;;;;;;5.57;2.70;;;;;;;;;;4973140;28;20436;-77
2022/11/10 10:28:09;;;;;;;2.87;2.43;;;;;;;;;;4952149;28;20543;-77
2022/11/10 10:30:35;;;;;;;4.60;2.43;;;;;;;;;;4972513;28;20448;-77
2022/11/10 10:33:09;;;;;;;8.30;2.83;;;;;;;;;;4972305;28;20512;-78
2022/11/10 10:35:35;;;;;;;4.97;2.17;;;;;;;;;;4964394;28;20434;-76
2022/11/10 10:38:05;;;;;;;6.43;2.10;;;;;;;;;;4969356;28;20452;-79
2022/11/10 10:40:31;;;;;;;6.60;2.50;;;;;;;;;;4964195;28;21032;-77
2022/11/10 10:42:59;;;;;;;4.80;2.90;;;;;;;;;;4962328;28;20488;-78
2022/11/10 10:45:26;;;;;;;3.40;1.87;;;;;;;;;;4971779;28;20583;-77
2022/11/10 10:47:53;;;;;;;5.40;2.43;;;;;;;;;;4946909;28;20524;-78
2022/11/10 10:50:22;;;;;;;3.77;2.80;;;;;;;;;;4954558;28;20960;-76
2022/11/10 10:53:07;;;;;;;6.40;2.50;;;;;;;;;;4946944;28;20443;-78
2022/11/10 10:55:34;;;;;;;10.30;3.07;;;;;;;;;;4939774;28;20731;-78
2022/11/10 10:58:05;;;;;;;6.40;2.30;;;;;;;;;;4958414;28;20519;-77
2022/11/10 11:00:32;;;;;;;4.23;2.30;;;;;;;;;;4972635;28;20506;-77
2022/11/10 11:03:15;;;;;;;4.73;2.40;;;;;;;;;;4965791;28;20560;-78
2022/11/10 11:05:41;;;;;;;9.50;2.57;;;;;;;;;;4953946;28;20541;-79
2022/11/10 11:08:16;;;;;;;2.23;2.00;;;;;;;;;;4960658;28;20465;-78
2022/11/10 11:10:45;;;;;;;9.83;2.63;;;;;;;;;;4970168;28;21193;-78
2022/11/10 11:13:28;;;;;;;4.97;2.80;;;;;;;;;;4598702;28;9999860;-79
2022/11/10 11:15:58;;;;;;;7.43;2.10;;;;;;;;;;4973433;28;20186;-77
2022/11/10 11:18:25;;;;;;;4.20;2.20;;;;;;;;;;4962562;28;20449;-77
2022/11/10 11:21:04;;;;;;;1.90;1.70;;;;;;;;;;4963435;28;20441;-79
2022/11/10 11:23:30;;;;;;;2.37;2.00;;;;;;;;;;4974317;28;20542;-77
2022/11/10 11:26:01;;;;;;;7.40;2.73;;;;;;;;;;4941628;28;20549;-77
2022/11/10 11:28:38;;;;;;;5.03;2.30;;;;;;;;;;4961775;28;20480;-77
2022/11/10 11:31:08;;;;;;;2.30;2.10;;;;;;;;;;4948866;28;20553;-77
2022/11/10 11:33:34;;;;;;;2.73;2.50;;;;;;;;;;4965867;28;20433;-78
2022/11/10 11:36:00;;;;;;;2.37;1.93;;;;;;;;;;4960867;28;20618;-77
2022/11/10 11:38:39;;;;;;;3.20;2.23;;;;;;;;;;4972897;28;20426;-79
2022/11/10 11:41:11;;;;;;;7.10;2.10;;;;;;;;;;4972252;28;20488;-78
2022/11/10 11:43:41;;;;;;;9.87;2.80;;;;;;;;;;4980541;28;21045;-78
2022/11/10 11:46:10;;;;;;;7.77;2.40;;;;;;;;;;4951634;28;20600;-78
2022/11/10 11:48:41;;;;;;;3.23;1.73;;;;;;;;;;4971159;28;20497;-77
2022/11/10 11:51:30;;;;;;;3.50;1.70;;;;;;;;;;4970421;28;20441;-76
2022/11/10 11:54:05;;;;;;;2.37;2.17;;;;;;;;;;4963324;28;20556;-78
2022/11/10 11:56:37;;;;;;;4.97;2.03;;;;;;;;;;4969475;28;20503;-77
2022/11/10 11:59:09;;;;;;;3.40;1.53;;;;;;;;;;4971220;28;20432;-79
2022/11/10 12:01:47;;;;;;;3.50;1.63;;;;;;;;;;4968185;28;20480;-78
2022/11/10 12:04:32;;;;;;;9.67;2.00;;;;;;;;;;4967113;28;20459;-77
2022/11/10 12:07:06;;;;;;;7.87;2.00;;;;;;;;;;4962529;28;20453;-77
2022/11/10 12:09:56;;;;;;;5.63;1.50;;;;;;;;;;4964665;28;20528;-77
2022/11/10 12:12:22;;;;;;;5.83;1.80;;;;;;;;;;4966975;28;20445;-77
2022/11/10 12:15:23;;;;;;;4.00;1.87;;;;;;;;;;4972423;28;20452;-77
2022/11/10 12:17:59;;;;;;;2.30;1.90;;;;;;;;;;4935673;28;20457;-77
2022/11/10 12:23:42;;;;;;;3.13;2.23;;;;;;;;;;4871806;29;20470;-77
2022/11/10 12:26:36;;;;;;;2.33;1.73;;;;;;;;;;4965784;28;20449;-75
2022/11/10 12:29:05;;;;;;;2.57;2.17;;;;;;;;;;4968654;28;20432;-78
2022/11/10 12:31:34;;;;;;;1.77;1.60;;;;;;;;;;4951590;28;20937;-77
2022/11/10 12:34:14;;;;;;;3.87;1.77;;;;;;;;;;4973824;28;20444;-78
2022/11/10 12:36:46;;;;;;;4.23;1.40;;;;;;;;;;4962818;28;20433;-78
2022/11/10 12:39:15;;;;;;;29.60;26.57;;;;;;;;;;4969270;28;20425;-77
2022/11/10 12:41:46;;;;;;;1.77;1.60;;;;;;;;;;4949942;28;20468;-77
2022/11/10 12:44:18;;;;;;;3.00;1.83;;;;;;;;;;4967836;28;20464;-75
2022/11/10 12:46:45;;;;;;;1.23;1.10;;;;;;;;;;4968211;28;21311;-78
2022/11/10 12:49:18;;;;;;;4.37;1.33;;;;;;;;;;4969334;28;20485;-77
2022/11/10 12:51:50;;;;;;;3.70;1.30;;;;;;;;;;4969242;28;20805;-76
2022/11/10 12:54:17;;;;;;;2.33;1.37;;;;;;;;;;4954851;28;20526;-79
2022/11/10 12:56:45;;;;;;;1.27;0.80;;;;;;;;;;4972588;28;20437;-78
2022/11/10 12:59:21;;;;;;;2.13;1.07;;;;;;;;;;4972967;28;20451;-77
2022/11/10 13:01:52;;;;;;;1.60;0.90;;;;;;;;;;4948740;28;20440;-79
2022/11/10 13:04:19;;;;;;;2.10;1.13;;;;;;;;;;4970019;28;20445;-79
2022/11/10 13:06:50;;;;;;;3.70;1.40;;;;;;;;;;4966399;28;20449;-77
2022/11/10 13:09:45;;;;;;;1.00;1.00;;;;;;;;;;4964203;28;20429;-78
2022/11/10 13:12:16;;;;;;;1.10;1.00;;;;;;;;;;4953942;28;20453;-81
2022/11/10 13:14:42;;;;;;;1.83;1.60;;;;;;;;;;4973758;28;20440;-80
2022/11/10 13:17:39;;;;;;;2.73;0.93;;;21.60;90.60;;;;;;4964673;28;20461;-80
2022/11/10 13:20:43;;;;;;;4.30;1.50;;;21.60;90.10;;;;;;4955725;28;20437;-80
2022/11/10 13:23:25;;;;;;;4.43;1.03;;;22.10;91.40;;;;;;4962921;28;20974;-82
2022/11/10 13:26:06;;;;;;;5.73;2.10;;;21.60;91.00;;;;;;4972353;28;20459;-80
2022/11/10 13:28:47;;;;;;;3.07;1.63;;;21.60;90.60;;;;;;4984940;28;20459;-81
2022/11/10 13:31:29;;;;;;;1.20;1.10;;;21.40;91.20;;;;;;4987503;28;20549;-81
2022/11/10 13:34:25;;;;;;;3.53;1.00;;;21.40;91.10;;;;;;4975429;28;20789;-79
2022/11/10 13:36:51;;;;;;;5.13;1.20;;;21.50;90.30;;;;;;4975144;28;21000;-79
2022/11/10 13:39:22;;;;;;;1.80;1.07;;;21.50;91.00;;;;;;4977818;28;20432;-80
2022/11/10 13:41:49;;;;;;;1.63;1.30;;;;;;;;;;4969914;28;20440;-79
2022/11/10 13:44:26;;;;;;;5.77;1.30;;;;;;;;;;4978915;28;21015;-78
2022/11/10 13:47:09;;;;;;;2.83;1.50;;;;;;;;;;4969756;28;20815;-82
2022/11/10 13:49:54;;;;;;;1.30;1.10;;;;;;;;;;4975029;28;20821;-80
2022/11/10 13:52:29;;;;;;;3.30;1.20;;;;;;;;;;4961989;28;20853;-80
2022/11/10 13:55:02;;;;;;;5.40;1.03;;;;;;;;;;4980060;28;20433;-79
2022/11/10 13:57:29;;;;;;;3.10;1.37;;;;;;;;;;4975832;28;20446;-78
2022/11/10 13:59:58;;;;;;;2.00;1.27;;;;;;;;;;4980081;28;20443;-79
2022/11/10 14:02:33;;;;;;;3.73;1.20;;;;;;;;;;4979001;28;20481;-78
2022/11/10 14:05:00;;;;;;;3.70;1.43;;;;;;;;;;4967485;28;20847;-79
2022/11/10 14:07:31;;;;;;;2.70;2.37;;;;;;;;;;4972702;28;20499;-79
2022/11/10 14:10:03;;;;;;;2.20;1.70;;;;;;;;;;4975471;28;20456;-79
2022/11/10 14:12:41;;;;;;;3.80;1.60;;;;;;;;;;4979026;28;20969;-79
2022/11/10 14:15:21;;;;;;;1.80;1.63;;;;;;;;;;4984917;28;20436;-79
2022/11/10 14:17:49;;;;;;;4.53;1.70;;;;;;;;;;4971728;28;20455;-79
2022/11/10 14:20:27;;;;;;;2.63;1.60;;;;;;;;;;4975239;28;20730;-78
2022/11/10 14:22:53;;;;;;;2.37;1.30;;;;;;;;;;4981431;28;20464;-79
2022/11/10 14:25:25;;;;;;;1.60;1.17;;;19.00;90.20;;;;;;4974419;28;20981;-79
2022/11/10 14:27:52;;;;;;;4.33;1.20;;;;;;;;;;4975503;28;20809;-78
2022/11/10 14:30:26;;;;;;;4.10;1.70;;;18.30;94.10;;;;;;4981735;28;20435;-76
2022/11/10 14:33:03;;;;;;;1.70;1.60;;;;;;;;;;4971867;28;20425;-77
2022/11/10 14:35:30;;;;;;;2.23;1.47;;;;;;;;;;4977249;28;20716;-78
2022/11/10 14:37:58;;;;;;;2.50;1.77;;;;;;;;;;4949886;28;20516;-78
2022/11/10 14:40:24;;;;;;;2.30;1.40;;;;;;;;;;4969334;28;20524;-78
2022/11/10 14:42:50;;;;;;;1.80;1.03;;;;;;;;;;4968861;28;20465;-77
2022/11/10 14:45:18;;;;;;;2.60;1.30;;;;;;;;;;4974901;28;20475;-78
2022/11/10 14:47:52;;;;;;;1.47;1.47;;;;;;;;;;4967076;28;20955;-76
2022/11/10 14:50:18;;;;;;;6.60;1.10;;;;;;;;;;4981344;28;21066;-77
2022/11/10 14:52:46;;;;;;;3.77;1.30;;;;;;;;;;4971617;28;20786;-76
2022/11/10 14:55:17;;;;;;;3.90;1.20;;;;;;;;;;4980708;28;20443;-78
2022/11/10 14:57:55;;;;;;;4.30;1.50;;;;;;;;;;4609210;28;10000653;-79
2022/11/10 15:00:27;;;;;;;3.00;1.30;;;;;;;;;;4969075;28;20558;-77
2022/11/10 15:02:54;;;;;;;1.57;1.47;;;;;;;;;;4961814;28;20872;-78
2022/11/10 15:05:30;;;;;;;1.80;1.17;;;;;;;;;;4967254;28;20461;-84